Time;durP1;ratioP1;P1;durP2;ratioP2;P2;SDS_P1;SDS_P2;PMS_P1;PMS_P2;Temp;Humidity;BMP_temperature;BMP_pressure;BME280_temperature;BME280_humidity;BME280_pressure;Samples;Min_cycle;Max_cycle;Signal;HPM_P1;HPM_P2
2023/06/07 00:01:57;;;;;;;14.30;5.73;;;;;;;-145.18;100.00;46689.69;4999753;28;20042;-61
2023/06/07 00:04:23;;;;;;;10.43;6.07;;;;;;;-145.18;100.00;46691.66;5009454;28;20403;-61
2023/06/07 00:06:48;;;;;;;10.07;5.47;;;;;;;-145.18;100.00;46695.56;5002640;28;20037;-61
2023/06/07 00:09:14;;;;;;;13.07;5.57;;;;;;;-145.18;100.00;46693.59;5009295;28;20069;-61
2023/06/07 00:11:40;;;;;;;10.13;6.00;;;;;;;-145.18;100.00;46695.56;5004132;28;20080;-61
2023/06/07 00:14:05;;;;;;;9.17;5.43;;;;;;;-145.18;100.00;46689.69;5002325;28;20049;-61
2023/06/07 00:16:32;;;;;;;13.13;6.10;;;;;;;-145.18;100.00;46693.59;5006556;28;20392;-62
2023/06/07 00:18:58;;;;;;;8.97;5.47;;;;;;;-145.18;100.00;46693.59;4996883;28;20038;-61
2023/06/07 00:21:24;;;;;;;9.73;5.83;;;;;;;-145.18;100.00;46689.69;5002196;28;20029;-61
2023/06/07 00:23:50;;;;;;;9.70;5.40;;;;;;;-145.18;100.00;46693.59;4991241;28;20034;-61
2023/06/07 00:26:16;;;;;;;11.03;6.33;;;;;;;-145.18;100.00;46693.59;5007767;28;20040;-61
2023/06/07 00:28:41;;;;;;;13.53;5.27;;;;;;;-145.18;100.00;46689.69;5009132;28;20058;-61
2023/06/07 00:31:07;;;;;;;16.67;5.97;;;;;;;-145.18;100.00;46685.78;5007190;28;20027;-61
2023/06/07 00:33:32;;;;;;;12.57;5.43;;;;;;;-145.18;100.00;46693.59;5009063;28;20175;-61
2023/06/07 00:35:58;;;;;;;11.17;6.00;;;;;;;-145.18;100.00;46693.59;5001304;28;20036;-61
2023/06/07 00:38:24;;;;;;;15.07;6.23;;;;;;;-145.18;100.00;46691.66;5007342;28;20079;-61
2023/06/07 00:40:49;;;;;;;11.43;6.07;;;;;;;-145.18;100.00;46691.66;5000692;28;20542;-61
2023/06/07 00:43:15;;;;;;;12.13;6.83;;;;;;;-145.18;100.00;46693.59;5011475;28;20040;-61
2023/06/07 00:45:40;;;;;;;18.53;6.10;;;;;;;-145.18;100.00;46689.69;5004536;28;20403;-61
2023/06/07 00:48:07;;;;;;;11.90;6.00;;;;;;;-145.18;100.00;46689.69;5007775;28;20044;-61
2023/06/07 00:50:33;;;;;;;12.30;6.03;;;;;;;-145.18;100.00;46691.66;4983049;28;20118;-61
2023/06/07 00:52:59;;;;;;;17.87;7.07;;;;;;;-145.18;100.00;46689.69;5010906;28;20069;-61
2023/06/07 00:55:26;;;;;;;12.97;6.20;;;;;;;-145.18;100.00;46685.78;4986039;28;20144;-61
2023/06/07 00:57:52;;;;;;;10.07;6.23;;;;;;;-145.18;100.00;46681.88;5001003;28;20033;-61
2023/06/07 01:00:18;;;;;;;15.20;6.87;;;;;;;-145.18;100.00;46672.13;4998040;28;20092;-62
2023/06/07 01:02:46;;;;;;;12.67;6.67;;;;;;;-145.18;100.00;46677.97;5080395;23;20531;-82
2023/06/07 01:05:16;;;;;;;13.57;6.87;;;;;;;-145.18;100.00;46679.94;5026102;28;20127;-83
2023/06/07 01:07:48;;;;;;;14.40;6.13;;;;;;;-145.18;100.00;46677.97;5043995;28;20052;-82
2023/06/07 01:10:15;;;;;;;15.20;7.03;;;;;;;-145.18;100.00;46687.75;5046749;28;20035;-82
2023/06/07 01:12:43;;;;;;;17.87;7.47;;;;;;;-145.18;100.00;46676.03;5031224;28;20392;-82
2023/06/07 01:15:11;;;;;;;19.87;6.90;;;;;;;-145.18;100.00;46679.94;5030957;28;20029;-82
2023/06/07 01:17:40;;;;;;;13.37;6.63;;;;;;;-145.18;100.00;46672.13;5029247;28;20037;-82
2023/06/07 01:20:12;;;;;;;14.30;6.53;;;;;;;-145.18;100.00;46672.13;5049358;28;20044;-82
2023/06/07 01:22:42;;;;;;;14.67;7.30;;;;;;;-145.18;100.00;46668.22;5048092;28;20094;-82
2023/06/07 01:25:08;;;;;;;16.80;6.93;;;;;;;-145.18;100.00;46681.88;5048372;28;20092;-82
2023/06/07 01:27:36;;;;;;;17.30;6.53;;;;;;;-145.18;100.00;46674.06;5047080;28;20044;-81
2023/06/07 01:30:03;;;;;;;15.17;6.47;;;;;;;-145.18;100.00;46674.06;5049909;28;20041;-83
2023/06/07 01:32:30;;;;;;;16.37;7.13;;;;;;;-145.18;100.00;46674.06;5013994;28;20059;-82
2023/06/07 01:34:56;;;;;;;13.90;8.03;;;;;;;-145.18;100.00;46676.03;5049668;28;20033;-82
2023/06/07 01:37:22;;;;;;;16.03;7.33;;;;;;;-145.18;100.00;46681.88;5049407;28;20400;-82
2023/06/07 01:39:51;;;;;;;13.97;6.27;;;;;;;-145.18;100.00;46674.06;5048713;28;20033;-82
2023/06/07 01:42:17;;;;;;;15.13;6.73;;;;;;;-145.18;100.00;46672.13;5050063;28;20115;-82
2023/06/07 01:44:45;;;;;;;15.23;7.47;;;;;;;-145.18;100.00;46666.25;5030645;28;20029;-82
2023/06/07 01:47:12;;;;;;;15.37;7.50;;;;;;;-145.18;100.00;46679.94;5050352;28;20055;-82
2023/06/07 01:49:38;;;;;;;17.00;7.23;;;;;;;-145.18;100.00;46670.16;5049189;28;20041;-82
2023/06/07 01:52:04;;;;;;;15.60;6.73;;;;;;;-145.18;100.00;46672.13;5048859;28;20029;-82
2023/06/07 01:54:30;;;;;;;16.00;6.90;;;;;;;-145.18;100.00;46670.16;5030748;28;20044;-82
2023/06/07 01:57:06;;;;;;;14.83;7.23;;;;;;;-145.18;100.00;46668.22;5015894;28;20439;-82
2023/06/07 01:59:45;;;;;;;15.60;7.03;;;;;;;-145.18;100.00;46670.16;5048829;28;20492;-82
2023/06/07 02:02:20;;;;;;;14.90;6.43;;;;;;;-145.18;100.00;46668.22;5048599;28;20132;-82
2023/06/07 02:04:50;;;;;;;18.13;7.07;;;;;;;-145.18;100.00;46668.22;5052952;28;20024;-82
2023/06/07 02:07:23;;;;;;;12.10;6.73;;;;;;;-145.18;100.00;46660.41;5053916;28;20036;-83
2023/06/07 02:09:50;;;;;;;13.30;6.63;;;;;;;-145.18;100.00;46670.16;5054354;28;20101;-82
2023/06/07 02:12:17;;;;;;;12.60;6.17;;;;;;;-145.18;100.00;46666.25;5055281;28;20032;-82
2023/06/07 02:14:43;;;;;;;16.33;7.20;;;;;;;-145.18;100.00;46668.22;5055788;28;20048;-82
2023/06/07 02:17:09;;;;;;;13.37;6.30;;;;;;;-145.18;100.00;46662.34;5051795;28;20409;-82
2023/06/07 02:19:35;;;;;;;15.90;6.43;;;;;;;-145.18;100.00;46670.16;5053093;28;20484;-82
2023/06/07 02:22:01;;;;;;;12.90;6.20;;;;;;;-145.18;100.00;46666.25;5054152;28;20041;-81
2023/06/07 02:24:27;;;;;;;14.83;7.50;;;;;;;-145.18;100.00;46668.22;5051764;28;20032;-82
2023/06/07 02:26:56;;;;;;;14.30;6.47;;;;;;;-145.18;100.00;46656.50;5052389;28;20053;-82
2023/06/07 02:29:22;;;;;;;15.27;6.70;;;;;;;-145.18;100.00;46658.44;5054133;28;20036;-82
2023/06/07 02:31:49;;;;;;;12.77;6.47;;;;;;;-145.18;100.00;46660.41;5051970;28;20028;-82
2023/06/07 02:34:14;;;;;;;16.70;6.10;;;;;;;-145.18;100.00;46660.41;5051993;28;20476;-82
2023/06/07 02:36:40;;;;;;;15.90;6.13;;;;;;;-145.18;100.00;46658.44;5052059;28;20040;-82
2023/06/07 02:39:07;;;;;;;14.80;6.23;;;;;;;-145.18;100.00;46658.44;5052004;28;20115;-82
2023/06/07 02:41:33;;;;;;;12.53;6.17;;;;;;;-145.18;100.00;46660.41;5050217;28;20064;-82
2023/06/07 02:43:58;;;;;;;14.83;7.00;;;;;;;-145.18;100.00;46660.41;5053158;28;20064;-82
2023/06/07 02:46:24;;;;;;;14.10;6.50;;;;;;;-145.18;100.00;46662.34;5051576;28;20067;-82
2023/06/07 02:48:49;;;;;;;17.67;6.47;;;;;;;-145.18;100.00;46656.50;5050285;28;20025;-82
2023/06/07 02:51:15;;;;;;;10.37;5.90;;;;;;;-145.18;100.00;46656.50;5058043;28;20037;-82
2023/06/07 02:53:41;;;;;;;17.27;6.77;;;;;;;-145.18;100.00;46662.34;5036410;28;20037;-82
2023/06/07 02:56:08;;;;;;;16.10;5.60;;;;;;;-145.18;100.00;46664.31;5016470;28;20036;-82
2023/06/07 02:58:34;;;;;;;12.70;5.23;;;;;;;-145.18;100.00;46658.44;5052959;28;20120;-83
2023/06/07 03:01:00;;;;;;;11.03;5.57;;;;;;;-145.18;100.00;46664.31;5051239;28;20179;-82
2023/06/07 03:03:25;;;;;;;16.07;6.10;;;;;;;-145.18;100.00;46662.34;5051570;28;20110;-82
2023/06/07 03:05:52;;;;;;;16.30;6.67;;;;;;;-145.18;100.00;46658.44;5051007;28;20182;-82
2023/06/07 03:08:18;;;;;;;14.00;5.83;;;;;;;-145.18;100.00;46666.25;5035747;28;20033;-82
2023/06/07 03:10:44;;;;;;;14.07;5.90;;;;;;;-145.18;100.00;46656.50;5049853;28;20042;-82
2023/06/07 03:13:09;;;;;;;15.10;6.47;;;;;;;-145.18;100.00;46654.53;5048326;28;20055;-83
2023/06/07 03:15:35;;;;;;;11.03;5.43;;;;;;;-145.18;100.00;46648.69;5045704;28;20067;-82
2023/06/07 03:18:03;;;;;;;15.03;5.47;;;;;;;-145.18;100.00;46658.44;5051569;28;20037;-82
2023/06/07 03:20:29;;;;;;;16.60;6.03;;;;;;;-145.18;100.00;46660.41;5047365;28;20033;-82
2023/06/07 03:22:55;;;;;;;15.80;5.67;;;;;;;-145.18;100.00;46656.50;5043318;28;20079;-82
2023/06/07 03:25:21;;;;;;;17.03;5.73;;;;;;;-145.18;100.00;46658.44;5050312;28;20056;-82
2023/06/07 03:27:47;;;;;;;10.07;5.60;;;;;;;-145.18;100.00;46660.41;5032921;28;20128;-81
2023/06/07 03:30:12;;;;;;;11.80;5.37;;;;;;;-145.18;100.00;46654.53;5029902;28;20037;-81
2023/06/07 03:32:38;;;;;;;12.27;5.20;;;;;;;-145.18;100.00;46658.44;5030206;28;20121;-81
2023/06/07 03:35:04;;;;;;;11.17;5.87;;;;;;;-145.18;100.00;46654.53;5051674;28;20085;-81
2023/06/07 03:37:29;;;;;;;12.93;5.40;;;;;;;-145.18;100.00;46660.41;5034166;28;20128;-81
2023/06/07 03:39:55;;;;;;;10.90;5.33;;;;;;;-145.18;100.00;46658.44;5034422;28;20036;-82
2023/06/07 03:42:20;;;;;;;12.40;5.60;;;;;;;-145.18;100.00;46654.53;5046914;28;20047;-81
2023/06/07 03:44:45;;;;;;;15.40;6.03;;;;;;;-145.18;100.00;46660.41;5051456;28;20366;-82
2023/06/07 03:47:11;;;;;;;11.67;4.77;;;;;;;-145.18;100.00;46660.41;5049875;28;20485;-82
2023/06/07 03:49:36;;;;;;;10.33;5.40;;;;;;;-145.18;100.00;46664.31;5033872;28;20041;-82
2023/06/07 03:52:02;;;;;;;15.90;5.43;;;;;;;-145.18;100.00;46662.34;5032966;28;20049;-81
2023/06/07 03:54:27;;;;;;;13.53;5.40;;;;;;;-145.18;100.00;46668.22;5052355;28;20029;-82
2023/06/07 03:56:53;;;;;;;13.80;5.57;;;;;;;-145.18;100.00;46660.41;5017446;28;20535;-81
2023/06/07 03:59:20;;;;;;;12.67;5.33;;;;;;;-145.18;100.00;46664.31;5017854;28;20095;-81
2023/06/07 04:01:48;;;;;;;19.67;6.20;;;;;;;-145.18;100.00;46656.50;5051380;28;20145;-82
2023/06/07 04:04:13;;;;;;;12.73;5.50;;;;;;;-145.18;100.00;46662.34;5032759;28;20102;-82
2023/06/07 04:06:39;;;;;;;11.43;5.37;;;;;;;-145.18;100.00;46662.34;5052219;28;20477;-82
2023/06/07 04:09:06;;;;;;;11.50;6.07;;;;;;;-145.18;100.00;46660.41;5034946;28;20034;-82
2023/06/07 04:11:32;;;;;;;15.43;6.43;;;;;;;-145.18;100.00;46660.41;5048078;28;20029;-82
2023/06/07 04:13:57;;;;;;;14.10;5.77;;;;;;;-145.18;100.00;46656.50;5017676;28;20035;-82
2023/06/07 04:16:23;;;;;;;16.30;6.03;;;;;;;-145.18;100.00;46662.34;5047484;28;20047;-81
2023/06/07 04:18:48;;;;;;;15.23;6.57;;;;;;;-145.18;100.00;46662.34;5050093;28;20036;-81
2023/06/07 04:21:14;;;;;;;12.43;6.07;;;;;;;-145.18;100.00;46664.31;5047443;28;20128;-81
2023/06/07 04:23:41;;;;;;;14.37;5.90;;;;;;;-145.18;100.00;46662.34;5049742;28;20039;-81
2023/06/07 04:26:08;;;;;;;12.10;5.93;;;;;;;-145.18;100.00;46662.34;5044119;28;20033;-81
2023/06/07 04:28:34;;;;;;;13.97;6.10;;;;;;;-145.18;100.00;46656.50;5050505;28;20033;-81
2023/06/07 04:30:59;;;;;;;11.60;5.87;;;;;;;-145.18;100.00;46656.50;5049983;28;20059;-81
2023/06/07 04:33:27;;;;;;;11.27;5.93;;;;;;;-145.18;100.00;46664.31;5015271;28;20477;-80
2023/06/07 04:35:57;;;;;;;9.47;5.10;;;;;;;-145.18;100.00;46660.41;5050083;28;20549;-81
2023/06/07 04:38:23;;;;;;;15.53;6.07;;;;;;;-145.18;100.00;46658.44;5047275;28;20055;-80
2023/06/07 04:40:50;;;;;;;13.13;5.83;;;;;;;-145.18;100.00;46660.41;5050929;28;20032;-81
2023/06/07 04:43:19;;;;;;;15.90;6.00;;;;;;;-145.18;100.00;46660.41;5048022;28;20043;-81
2023/06/07 04:45:54;;;;;;;12.77;6.03;;;;;;;-145.18;100.00;46658.44;5050420;28;20034;-81
2023/06/07 04:48:25;;;;;;;15.20;6.47;;;;;;;-145.18;100.00;46658.44;5051152;28;20057;-81
2023/06/07 04:50:51;;;;;;;13.57;5.97;;;;;;;-145.18;100.00;46664.31;5053284;28;20029;-81
2023/06/07 04:53:19;;;;;;;13.03;5.97;;;;;;;-145.18;100.00;46658.44;5051776;28;20039;-82
2023/06/07 04:55:46;;;;;;;11.67;5.90;;;;;;;-145.18;100.00;46666.25;5051103;28;20055;-81
2023/06/07 04:58:11;;;;;;;17.10;6.27;;;;;;;-145.18;100.00;46660.41;5062153;28;20433;-81
2023/06/07 05:00:39;;;;;;;15.77;6.10;;;;;;;-145.18;100.00;46662.34;5035729;28;20078;-82
2023/06/07 05:03:08;;;;;;;13.93;5.83;;;;;;;-145.18;100.00;46664.31;5052659;28;20028;-80
2023/06/07 05:05:37;;;;;;;18.93;5.50;;;;;;;-145.18;100.00;46658.44;5051262;28;20025;-81
2023/06/07 05:08:03;;;;;;;16.30;5.40;;;;;;;-145.18;100.00;46658.44;5051218;28;20037;-82
2023/06/07 05:10:29;;;;;;;13.93;6.43;;;;;;;-145.18;100.00;46658.44;5051153;28;20158;-80
2023/06/07 05:12:55;;;;;;;20.50;5.77;;;;;;;-145.18;100.00;46670.16;5052699;28;20548;-81
2023/06/07 05:15:24;;;;;;;15.97;5.73;;;;;;;-145.18;100.00;46658.44;5051617;28;20025;-81
2023/06/07 05:17:50;;;;;;;14.70;5.40;;;;;;;-145.18;100.00;46658.44;5052960;28;20035;-82
2023/06/07 05:20:17;;;;;;;22.80;5.60;;;;;;;-145.18;100.00;46662.34;5051177;28;20090;-81
2023/06/07 05:22:43;;;;;;;15.20;5.83;;;;;;;-145.18;100.00;46666.25;5052609;28;20039;-81
2023/06/07 05:25:11;;;;;;;14.63;5.93;;;;;;;-145.18;100.00;46662.34;5039948;28;20017;-81
2023/06/07 05:27:38;;;;;;;17.77;5.47;;;;;;;-145.18;100.00;46662.34;5052729;28;20052;-81
2023/06/07 05:30:06;;;;;;;10.27;4.93;;;;;;;-145.18;100.00;46660.41;5051336;28;20025;-80
2023/06/07 05:32:32;;;;;;;14.03;5.20;;;;;;;-145.18;100.00;46664.31;5051187;28;20037;-81
2023/06/07 05:34:59;;;;;;;11.50;5.27;;;;;;;-145.18;100.00;46664.31;5050558;28;20397;-80
2023/06/07 05:37:25;;;;;;;19.17;6.83;;;;;;;-145.18;100.00;46664.31;5049412;28;20078;-81
2023/06/07 05:39:51;;;;;;;12.83;5.23;;;;;;;-145.18;100.00;46664.31;5033404;28;20045;-81
2023/06/07 05:42:16;;;;;;;14.40;5.10;;;;;;;-145.18;100.00;46668.22;5049507;28;20025;-81
2023/06/07 05:44:45;;;;;;;10.47;6.37;;;;;;;-145.18;100.00;46668.22;5041652;28;20454;-81
2023/06/07 05:47:10;;;;;;;14.87;6.13;;;;;;;-145.18;100.00;46666.25;5042766;28;20057;-81
2023/06/07 05:49:36;;;;;;;18.30;5.23;;;;;;;-145.18;100.00;46666.25;5030476;28;20084;-80
2023/06/07 05:52:07;;;;;;;13.20;5.37;;;;;;;-145.18;100.00;46670.16;5016431;28;20056;-81
2023/06/07 05:54:33;;;;;;;13.23;5.33;;;;;;;-145.18;100.00;46668.22;5019752;28;20112;-81
2023/06/07 05:57:02;;;;;;;12.83;5.40;;;;;;;-145.18;100.00;46672.13;5041760;28;20140;-81
2023/06/07 05:59:27;;;;;;;12.97;5.37;;;;;;;-145.18;100.00;46674.06;5033456;28;20116;-81
2023/06/07 06:01:53;;;;;;;12.50;5.83;;;;;;;-145.18;100.00;46670.16;5037239;28;20128;-81
2023/06/07 06:04:19;;;;;;;15.27;5.80;;;;;;;-145.18;100.00;46668.22;5039059;28;20033;-82
2023/06/07 06:06:45;;;;;;;14.23;5.50;;;;;;;-145.18;100.00;46666.25;5047034;28;20039;-81
2023/06/07 06:09:11;;;;;;;14.37;5.77;;;;;;;-145.18;100.00;46666.25;5051510;28;20032;-80
2023/06/07 06:11:37;;;;;;;16.23;5.73;;;;;;;-145.18;100.00;46666.25;5051920;28;20036;-81
2023/06/07 06:14:03;;;;;;;13.83;5.73;;;;;;;-145.18;100.00;46672.13;5046881;28;20051;-80
2023/06/07 06:16:28;;;;;;;13.03;5.57;;;;;;;-145.18;100.00;46666.25;5050598;28;20040;-80
2023/06/07 06:18:54;;;;;;;15.43;6.27;;;;;;;-145.18;100.00;46662.34;5037791;28;20033;-81
2023/06/07 06:21:20;;;;;;;13.20;6.37;;;;;;;-145.18;100.00;46672.13;5050181;28;20044;-81
2023/06/07 06:23:52;;;;;;;14.10;5.40;;;;;;;-145.18;100.00;46670.16;5034651;28;20021;-80
2023/06/07 06:26:17;;;;;;;20.67;5.83;;;;;;;-145.18;100.00;46676.03;5025331;28;20036;-81
2023/06/07 06:28:52;;;;;;;10.80;4.73;;;;;;;-145.18;100.00;46672.13;5049773;28;20408;-81
2023/06/07 06:31:18;;;;;;;12.60;5.60;;;;;;;-145.18;100.00;46670.16;5050253;28;20028;-82
2023/06/07 06:33:43;;;;;;;17.97;6.13;;;;;;;-145.18;100.00;46668.22;5049879;28;20549;-83
2023/06/07 06:36:09;;;;;;;16.13;5.53;;;;;;;-145.18;100.00;46672.13;5051562;28;20050;-82
2023/06/07 06:38:35;;;;;;;15.17;5.23;;;;;;;-145.18;100.00;46668.22;5033026;28;20029;-80
2023/06/07 06:41:01;;;;;;;13.77;5.87;;;;;;;-145.18;100.00;46668.22;5031798;28;20067;-79
2023/06/07 06:43:26;;;;;;;15.60;6.43;;;;;;;-145.18;100.00;46666.25;5051370;28;20041;-79
2023/06/07 06:45:55;;;;;;;14.57;5.80;;;;;;;-145.18;100.00;46668.22;5050749;28;20098;-80
2023/06/07 06:48:26;;;;;;;17.70;5.77;;;;;;;-145.18;100.00;46666.25;5051097;28;20021;-80
2023/06/07 06:50:58;;;;;;;14.67;5.37;;;;;;;-145.18;100.00;46664.31;5036403;28;20045;-79
2023/06/07 06:53:34;;;;;;;16.67;6.20;;;;;;;-145.18;100.00;46664.31;5044058;28;20043;-79
2023/06/07 06:56:00;;;;;;;13.40;6.27;;;;;;;-145.18;100.00;46656.50;5040847;28;20041;-80
2023/06/07 06:58:26;;;;;;;13.40;5.40;;;;;;;-145.18;100.00;46646.72;5066686;28;20025;-80
2023/06/07 07:00:51;;;;;;;9.03;5.00;;;;;;;-145.18;100.00;46646.72;5052923;28;20388;-81
2023/06/07 07:03:17;;;;;;;12.23;5.13;;;;;;;-145.18;100.00;46631.09;5054547;28;20022;-80
2023/06/07 07:05:42;;;;;;;13.27;5.30;;;;;;;-145.18;100.00;46586.16;5054555;28;20036;-80
2023/06/07 07:08:09;;;;;;;9.13;4.50;;;;;;;-145.18;100.00;46552.97;5054497;28;20033;-80
2023/06/07 07:10:34;;;;;;;9.93;4.77;;;;;;;-145.18;100.00;46541.25;5053664;28;20090;-80
2023/06/07 07:13:00;;;;;;;11.67;5.43;;;;;;;-145.18;100.00;46539.28;5054531;28;20037;-80
2023/06/07 07:15:27;;;;;;;18.97;5.13;;;;;;;-145.18;100.00;46533.44;5054629;28;20456;-80
2023/06/07 07:17:55;;;;;;;12.87;4.73;;;;;;;-145.18;100.00;46537.34;5052765;28;20039;-80
2023/06/07 07:20:38;;;;;;;11.63;5.40;;;;;;;-145.18;100.00;46539.28;5053922;28;20048;-81
2023/06/07 07:23:03;;;;;;;11.47;4.57;;;;;;;-145.18;100.00;46539.28;5053223;28;20064;-81
2023/06/07 07:25:56;;;;;;;10.17;4.33;;;;;;;-145.18;100.00;46533.44;5053035;28;20060;-80
2023/06/07 07:28:21;;;;;;;9.90;4.70;;;;;;;-145.18;100.00;46547.09;5040656;28;20040;-81
2023/06/07 07:30:50;;;;;;;12.57;4.30;;;;;;;-145.18;100.00;46552.97;5054194;28;20025;-80
2023/06/07 07:33:16;;;;;;;11.07;4.67;;;;;;;-145.18;100.00;46539.28;5052779;28;20379;-81
2023/06/07 07:35:44;;;;;;;11.30;4.83;;;;;;;-145.18;100.00;46549.06;5053586;28;20033;-81
2023/06/07 07:38:10;;;;;;;11.33;4.57;;;;;;;-145.18;100.00;46558.81;5052635;28;20040;-80
2023/06/07 07:40:39;;;;;;;9.23;4.37;;;;;;;-145.18;100.00;46551.00;5053321;28;20021;-80
2023/06/07 07:43:04;;;;;;;13.60;5.00;;;;;;;-145.18;100.00;46556.88;5053710;28;20032;-81
2023/06/07 07:45:30;;;;;;;10.80;4.77;;;;;;;-145.18;100.00;46554.91;5052319;28;20389;-80
2023/06/07 07:47:56;;;;;;;11.50;4.83;;;;;;;-145.18;100.00;46554.91;5054067;28;20071;-80
2023/06/07 07:50:26;;;;;;;11.90;4.20;;;;;;;-145.18;100.00;46547.09;5050027;28;20430;-80
2023/06/07 07:52:56;;;;;;;10.33;4.73;;;;;;;-145.18;100.00;46562.72;5043400;28;20388;-81
2023/06/07 07:55:30;;;;;;;9.40;4.60;;;;;;;-145.18;100.00;46551.00;5040674;28;20049;-80
2023/06/07 07:57:56;;;;;;;10.53;4.27;;;;;;;-145.18;100.00;46556.88;5061705;28;20043;-80
2023/06/07 08:00:23;;;;;;;10.57;3.87;;;;;;;-145.18;100.00;46558.81;5056882;28;20032;-80
2023/06/07 08:03:07;;;;;;;;;;;;;;;;;;;;;
2023/06/07 08:05:33;;;;;;;10.83;4.40;;;;;;;-145.18;100.00;46556.88;5052576;28;20029;-80
2023/06/07 08:08:00;;;;;;;15.80;4.70;;;;;;;-145.18;100.00;46560.78;5053126;28;20108;-79
2023/06/07 08:10:26;;;;;;;13.93;4.70;;;;;;;-145.18;100.00;46552.97;5046963;28;20515;-80
2023/06/07 08:12:55;;;;;;;10.47;4.37;;;;;;;-145.18;100.00;46549.06;5032353;28;20025;-80
2023/06/07 08:15:20;;;;;;;13.70;4.97;;;;;;;-145.18;100.00;46551.00;5052863;28;20112;-80
2023/06/07 08:17:46;;;;;;;9.73;4.43;;;;;;;-145.18;100.00;46558.81;5051757;28;20032;-80
2023/06/07 08:20:18;;;;;;;9.70;5.23;;;;;;;-145.18;100.00;46562.72;5053007;28;20028;-80
2023/06/07 08:22:43;;;;;;;12.07;4.80;;;;;;;-145.18;100.00;46560.78;5052729;28;20041;-81
2023/06/07 08:25:12;;;;;;;13.37;4.27;;;;;;;-145.18;100.00;46562.72;5051924;28;20541;-80
2023/06/07 08:28:03;;;;;;;10.67;4.37;;;;;;;-145.18;100.00;46560.78;5052685;28;20029;-81
2023/06/07 08:30:32;;;;;;;10.43;4.03;;;;;;;-145.18;100.00;46562.72;5043158;28;20380;-80
2023/06/07 08:32:58;;;;;;;10.73;3.90;;;;;;;-145.18;100.00;46566.63;5035024;28;20025;-80
2023/06/07 08:35:32;;;;;;;9.27;5.13;;;;;;;-145.18;100.00;46560.78;5053001;28;20047;-80
2023/06/07 08:38:00;;;;;;;7.77;3.60;;;;;;;-145.18;100.00;46566.63;5051437;28;20115;-81
2023/06/07 08:43:18;;;;;;;8.73;4.07;;;;;;;-145.18;100.00;46580.31;5010601;28;20557;-80
2023/06/07 08:45:56;;;;;;;11.60;3.73;;;;;;;-145.18;100.00;46578.34;5046309;28;20124;-81
2023/06/07 08:48:24;;;;;;;9.17;4.33;;;;;;;-145.18;100.00;46562.72;5052066;28;20029;-81
2023/06/07 08:50:54;;;;;;;9.43;4.50;;;;;;;-145.18;100.00;46554.91;5031893;28;20083;-80
2023/06/07 09:00:06;;;;;;;9.53;4.30;;;;;;;-145.18;100.00;46605.69;4979240;28;20093;-83
2023/06/07 09:03:15;;;;;;;10.43;4.07;;;;;;;-145.18;100.00;46627.19;5017559;28;20132;-82
2023/06/07 09:05:41;;;;;;;6.00;3.80;;;;;;;-145.18;100.00;46638.91;5019501;28;20071;-82
2023/06/07 09:08:09;;;;;;;10.60;4.03;;;;;;;-145.18;100.00;46629.13;5018235;28;20064;-83
2023/06/07 09:10:35;;;;;;;11.07;3.97;;;;;;;-145.18;100.00;46621.31;5032827;28;20029;-83
2023/06/07 09:13:00;;;;;;;12.50;4.83;;;;;;;-145.18;100.00;46623.28;5030176;28;20542;-83
2023/06/07 09:15:27;;;;;;;8.00;4.30;;;;;;;-145.18;100.00;46599.84;5011721;28;20030;-84
2023/06/07 09:18:03;;;;;;;7.97;4.40;;;;;;;-145.18;100.00;46607.66;5026589;28;20029;-83
2023/06/07 09:20:33;;;;;;;12.83;4.57;;;;;;;-145.18;100.00;46609.59;5030623;28;20038;-85
2023/06/07 09:23:06;;;;;;;12.73;3.83;;;;;;;-145.18;100.00;46580.31;5032411;28;20028;-84
2023/06/07 09:25:31;;;;;;;14.47;4.27;;;;;;;-145.18;100.00;46580.31;5032407;28;20037;-85
2023/06/07 09:27:57;;;;;;;10.67;4.77;;;;;;;-145.18;100.00;46617.41;5030836;28;20599;-85
2023/06/07 09:30:23;;;;;;;8.43;4.40;;;;;;;-145.18;100.00;46595.94;5021505;28;20099;-85
2023/06/07 09:32:49;;;;;;;9.67;3.93;;;;;;;-145.18;100.00;46588.13;5027785;28;20115;-84
2023/06/07 09:35:18;;;;;;;14.77;4.77;;;;;;;-145.18;100.00;46621.31;5011153;28;20041;-84
2023/06/07 09:37:50;;;;;;;13.80;3.70;;;;;;;-145.18;100.00;46623.28;5028353;28;20029;-85
2023/06/07 09:40:16;;;;;;;8.57;3.70;;;;;;;-145.18;100.00;46715.09;5030714;28;20033;-85
2023/06/07 09:42:43;;;;;;;11.73;4.23;;;;;;;-145.18;100.00;46945.59;5031776;28;20036;-85
2023/06/07 09:45:14;;;;;;;10.67;4.33;;;;;;;-145.18;100.00;47135.09;5030766;28;20025;-85
2023/06/07 09:47:42;;;;;;;10.80;3.93;;;;;;;-145.18;100.00;46924.09;5030975;28;20037;-85
2023/06/07 09:50:09;;;;;;;12.23;4.33;;;;;;;-145.18;100.00;47117.50;5030539;28;20030;-84
2023/06/07 09:52:35;;;;;;;10.70;5.10;;;;;;;-145.18;100.00;46713.13;5032065;28;20396;-85
2023/06/07 09:55:02;;;;;;;10.37;4.10;;;;;;;-145.18;100.00;47096.00;5031709;28;20022;-85
2023/06/07 09:57:33;;;;;;;6.73;4.10;;;;;;;-145.18;100.00;47125.31;5037292;28;20025;-85
2023/06/07 10:00:21;;;;;;;8.00;4.17;;;;;;;-145.18;100.00;47234.72;5023908;28;20133;-84
2023/06/07 10:02:49;;;;;;;9.50;4.30;;;;;;;-145.18;100.00;47219.09;5022528;28;20080;-85
2023/06/07 10:05:16;;;;;;;10.90;4.30;;;;;;;-145.18;100.00;47191.75;5027726;28;20572;-84
2023/06/07 10:07:41;;;;;;;13.60;4.33;;;;;;;-145.18;100.00;47207.38;5031732;28;20041;-84
2023/06/07 10:10:11;;;;;;;9.37;4.73;;;;;;;-145.18;100.00;47172.19;5031431;28;20518;-84
2023/06/07 10:12:40;;;;;;;9.80;4.13;;;;;;;-145.18;100.00;47139.00;5030514;28;20041;-84
2023/06/07 10:15:08;;;;;;;10.93;4.30;;;;;;;-145.18;100.00;47158.53;5031736;28;20392;-84
2023/06/07 10:17:41;;;;;;;15.00;4.40;;;;;;;-145.18;100.00;47121.41;5031525;28;20435;-84
2023/06/07 10:20:11;;;;;;;9.67;3.83;;;;;;;-145.18;100.00;47084.28;5031603;28;20080;-84
2023/06/07 10:22:41;;;;;;;9.50;4.43;;;;;;;-145.18;100.00;47117.50;5030139;28;20033;-83
2023/06/07 10:25:20;;;;;;;9.20;4.40;;;;;;;-145.18;100.00;47053.03;5013995;28;20029;-84
2023/06/07 10:28:02;;;;;;;9.70;4.43;;;;;;;-145.18;100.00;47074.53;5030806;28;20022;-84
2023/06/07 10:30:32;;;;;;;10.40;4.43;;;;;;;-145.18;100.00;47070.63;5035385;28;20029;-84
2023/06/07 10:32:58;;;;;;;9.67;4.10;;;;;;;-145.18;100.00;47062.81;5035172;28;20029;-83
2023/06/07 10:35:25;;;;;;;10.77;4.30;;;;;;;-145.18;100.00;47080.38;5035343;28;20040;-83
2023/06/07 10:37:53;;;;;;;8.13;4.27;;;;;;;-145.18;100.00;47037.41;5034816;28;20032;-83
2023/06/07 10:40:21;;;;;;;11.73;4.50;;;;;;;-145.18;100.00;47053.03;5034021;28;20032;-83
2023/06/07 10:42:47;;;;;;;17.47;4.60;;;;;;;-145.18;100.00;47031.53;5033444;28;20484;-82
2023/06/07 10:45:18;;;;;;;8.00;3.87;;;;;;;-145.18;100.00;47082.34;5034751;28;20056;-81
2023/06/07 10:47:44;;;;;;;12.10;4.20;;;;;;;-145.18;100.00;47023.72;5033694;28;20037;-82
2023/06/07 10:50:28;;;;;;;7.90;3.57;;;;;;;-145.18;100.00;47039.34;5016665;28;20034;-82
2023/06/07 10:53:00;;;;;;;11.47;4.50;;;;;;;-145.18;100.00;47033.50;5027261;28;20036;-82
2023/06/07 10:55:31;;;;;;;10.73;3.70;;;;;;;-145.18;100.00;47051.09;5019264;28;20492;-82
2023/06/07 10:57:57;;;;;;;8.63;3.83;;;;;;;-145.18;100.00;46996.38;5042216;28;20040;-82
2023/06/07 11:00:25;;;;;;;9.97;4.40;;;;;;;-145.18;100.00;47015.91;5023286;28;20025;-81
2023/06/07 11:03:12;;;;;;;9.37;4.17;;;;;;;-145.18;100.00;47031.53;5034014;28;20099;-82
2023/06/07 11:05:53;;;;;;;7.83;3.53;;;;;;;-145.18;100.00;47041.31;5020715;28;20068;-83
2023/06/07 11:08:33;;;;;;;11.43;4.23;;;;;;;-145.18;100.00;47027.63;5020224;28;20121;-81
2023/06/07 11:11:00;;;;;;;6.70;3.70;;;;;;;-145.18;100.00;47015.91;5014688;28;20038;-80
2023/06/07 11:13:44;;;;;;;8.80;4.00;;;;;;;-145.18;100.00;47008.09;5015995;28;20104;-80
2023/06/07 11:16:25;;;;;;;8.30;4.40;;;;;;;-145.18;100.00;47035.44;5024499;28;20033;-83
2023/06/07 11:19:05;;;;;;;11.37;4.57;;;;;;;-145.18;100.00;47053.03;5014609;28;20037;-81